Pagina principale
METAR-TAF:

METAR-TAF

Aeroporti :

Memmingen, Germania

latitudine: 47-59-33N, longitudine: 10-14-37E, altezza: 633 m

Osservazione

Il bollettino è stato emesso 35 minuti fa, alle 18:50 UTC
Vento 5 kt da nord/nord-est
Temperature 14°C
Umidità 63%
Pressione 1023 hPa
Visibilità 10 km o più
nessuna nube inferiore a 1500 m e nessun cumulonembo

METAR: EDJA 231850Z 02005KT CAVOK 14/07 Q1023

Ora: 21:25 (19:25 UTC)

Previsione

Il bollettino è stato emesso 2 ore e 25 minuti fa, alle 17:00 UTC
Previsione valida dal 23 alle 18 UTC al 24 alle 03 UTC
Vento 5 kt da nord/nord-ovest
Visibilità 10 km o più
Nubi sparse ad un'altezza di 5000 ft
Evoluzione graduale
dal 23 alle 18 UTC al 23 alle 20 UTC
Vento 3 kt da direzioni variabili

TAF: EDJA 231700Z 2318/2403 33005KT 9999 SCT050 BECMG 2318/2320 VRB03KT

Osservazioni e previsioni meteorologiche di più di 4000 aeroporti (messaggi METAR e TAF).

Le stazioni disponibili sono rappresentate dai dischi gialli e rossi sulla carta.

Puntare il mouse per vedere il nome della stazione.

Clicca sopra per visualizzare le osservazioni e previsioni meteorologiche.

Per cambiare la mappa : fare clic sui pulsanti verdi con una croce nera per ingrandire, il pulsante verde con un trattino per diminuire, o sulla freccia verde per le mappe adiacenti.


METAR-TAF: